sensor_id;sensor_type;location;lat;lon;timestamp;P1;durP1;ratioP1;P2;durP2;ratioP2
249;SDS011;109;19.806;-70.704;2022-09-02T00:00:42;20.30;;;5.20;;
249;SDS011;109;19.806;-70.704;2022-09-02T00:03:10;28.20;;;6.57;;
249;SDS011;109;19.806;-70.704;2022-09-02T00:05:36;27.07;;;6.70;;
249;SDS011;109;19.806;-70.704;2022-09-02T00:08:03;29.67;;;6.60;;
249;SDS011;109;19.806;-70.704;2022-09-02T00:10:31;27.13;;;6.67;;
249;SDS011;109;19.806;-70.704;2022-09-02T00:12:59;35.73;;;6.77;;
249;SDS011;109;19.806;-70.704;2022-09-02T00:15:26;23.87;;;6.13;;
249;SDS011;109;19.806;-70.704;2022-09-02T00:17:53;26.67;;;6.40;;
249;SDS011;109;19.806;-70.704;2022-09-02T00:20:19;25.87;;;6.30;;
249;SDS011;109;19.806;-70.704;2022-09-02T00:22:46;25.57;;;5.13;;
249;SDS011;109;19.806;-70.704;2022-09-02T00:25:12;16.10;;;4.30;;
249;SDS011;109;19.806;-70.704;2022-09-02T00:27:39;15.50;;;3.97;;
249;SDS011;109;19.806;-70.704;2022-09-02T00:30:07;17.53;;;4.20;;
249;SDS011;109;19.806;-70.704;2022-09-02T00:32:34;20.60;;;4.13;;
249;SDS011;109;19.806;-70.704;2022-09-02T00:35:01;15.97;;;4.50;;
249;SDS011;109;19.806;-70.704;2022-09-02T00:37:27;15.73;;;4.53;;
249;SDS011;109;19.806;-70.704;2022-09-02T00:39:54;20.07;;;5.70;;
249;SDS011;109;19.806;-70.704;2022-09-02T00:42:21;20.93;;;4.97;;
249;SDS011;109;19.806;-70.704;2022-09-02T00:44:48;20.63;;;5.73;;
249;SDS011;109;19.806;-70.704;2022-09-02T00:47:15;21.10;;;5.60;;
249;SDS011;109;19.806;-70.704;2022-09-02T00:49:45;17.50;;;6.20;;
249;SDS011;109;19.806;-70.704;2022-09-02T00:52:16;21.17;;;5.97;;
249;SDS011;109;19.806;-70.704;2022-09-02T00:54:49;25.93;;;6.50;;
249;SDS011;109;19.806;-70.704;2022-09-02T00:57:31;26.53;;;7.20;;
249;SDS011;109;19.806;-70.704;2022-09-02T01:00:13;25.33;;;7.57;;
249;SDS011;109;19.806;-70.704;2022-09-02T01:02:43;26.33;;;7.17;;
249;SDS011;109;19.806;-70.704;2022-09-02T01:05:14;28.10;;;7.10;;
249;SDS011;109;19.806;-70.704;2022-09-02T01:07:43;25.80;;;6.80;;
249;SDS011;109;19.806;-70.704;2022-09-02T01:10:12;21.67;;;6.10;;
249;SDS011;109;19.806;-70.704;2022-09-02T01:12:41;20.93;;;6.30;;
249;SDS011;109;19.806;-70.704;2022-09-02T01:15:08;19.27;;;6.20;;
249;SDS011;109;19.806;-70.704;2022-09-02T01:17:37;24.60;;;7.10;;
249;SDS011;109;19.806;-70.704;2022-09-02T01:20:09;30.27;;;7.40;;
249;SDS011;109;19.806;-70.704;2022-09-02T01:22:39;31.10;;;7.00;;
249;SDS011;109;19.806;-70.704;2022-09-02T01:25:08;24.00;;;7.50;;
249;SDS011;109;19.806;-70.704;2022-09-02T01:27:39;17.40;;;6.10;;
249;SDS011;109;19.806;-70.704;2022-09-02T01:30:06;18.33;;;6.53;;
249;SDS011;109;19.806;-70.704;2022-09-02T01:32:35;23.03;;;7.83;;
249;SDS011;109;19.806;-70.704;2022-09-02T01:35:02;17.93;;;6.17;;
249;SDS011;109;19.806;-70.704;2022-09-02T01:37:30;24.50;;;6.47;;
249;SDS011;109;19.806;-70.704;2022-09-02T01:39:57;21.30;;;6.57;;
249;SDS011;109;19.806;-70.704;2022-09-02T01:42:25;24.37;;;7.30;;
249;SDS011;109;19.806;-70.704;2022-09-02T01:44:52;22.73;;;6.67;;
249;SDS011;109;19.806;-70.704;2022-09-02T01:47:21;27.00;;;6.47;;
249;SDS011;109;19.806;-70.704;2022-09-02T01:49:49;28.17;;;7.60;;
249;SDS011;109;19.806;-70.704;2022-09-02T01:52:17;30.90;;;7.13;;
249;SDS011;109;19.806;-70.704;2022-09-02T01:54:45;24.57;;;5.77;;
249;SDS011;109;19.806;-70.704;2022-09-02T01:57:13;39.53;;;7.97;;
249;SDS011;109;19.806;-70.704;2022-09-02T01:59:39;33.23;;;6.70;;
249;SDS011;109;19.806;-70.704;2022-09-02T02:02:09;21.20;;;6.10;;
249;SDS011;109;19.806;-70.704;2022-09-02T02:04:35;27.53;;;6.80;;
249;SDS011;109;19.806;-70.704;2022-09-02T02:07:04;24.90;;;6.83;;
249;SDS011;109;19.806;-70.704;2022-09-02T02:09:31;25.77;;;6.33;;
249;SDS011;109;19.806;-70.704;2022-09-02T02:11:58;25.00;;;7.23;;
249;SDS011;109;19.806;-70.704;2022-09-02T02:14:28;30.87;;;7.00;;
249;SDS011;109;19.806;-70.704;2022-09-02T02:16:55;27.23;;;6.77;;
249;SDS011;109;19.806;-70.704;2022-09-02T02:19:21;24.80;;;7.30;;
249;SDS011;109;19.806;-70.704;2022-09-02T02:21:48;25.17;;;6.90;;
249;SDS011;109;19.806;-70.704;2022-09-02T02:24:14;22.00;;;7.03;;
249;SDS011;109;19.806;-70.704;2022-09-02T02:26:41;28.10;;;7.27;;
249;SDS011;109;19.806;-70.704;2022-09-02T02:29:09;24.23;;;6.43;;
249;SDS011;109;19.806;-70.704;2022-09-02T02:31:37;28.33;;;6.10;;
249;SDS011;109;19.806;-70.704;2022-09-02T02:34:04;25.30;;;7.60;;
249;SDS011;109;19.806;-70.704;2022-09-02T02:36:32;26.10;;;7.60;;
249;SDS011;109;19.806;-70.704;2022-09-02T02:38:58;24.07;;;6.07;;
249;SDS011;109;19.806;-70.704;2022-09-02T02:41:26;16.43;;;5.70;;
249;SDS011;109;19.806;-70.704;2022-09-02T02:43:56;19.00;;;5.57;;
249;SDS011;109;19.806;-70.704;2022-09-02T02:46:22;15.63;;;4.80;;
249;SDS011;109;19.806;-70.704;2022-09-02T02:48:49;12.23;;;3.90;;
249;SDS011;109;19.806;-70.704;2022-09-02T02:51:15;16.70;;;4.23;;
249;SDS011;109;19.806;-70.704;2022-09-02T02:53:43;13.80;;;4.23;;
249;SDS011;109;19.806;-70.704;2022-09-02T02:56:10;12.43;;;4.33;;
249;SDS011;109;19.806;-70.704;2022-09-02T02:58:36;15.40;;;4.50;;
249;SDS011;109;19.806;-70.704;2022-09-02T03:01:04;18.17;;;4.30;;
249;SDS011;109;19.806;-70.704;2022-09-02T03:03:31;17.93;;;5.07;;
249;SDS011;109;19.806;-70.704;2022-09-02T03:05:59;15.30;;;5.13;;
249;SDS011;109;19.806;-70.704;2022-09-02T03:08:28;22.80;;;5.60;;
249;SDS011;109;19.806;-70.704;2022-09-02T03:10:55;28.10;;;5.40;;
249;SDS011;109;19.806;-70.704;2022-09-02T03:13:25;24.67;;;6.93;;
249;SDS011;109;19.806;-70.704;2022-09-02T03:15:52;22.57;;;6.50;;
249;SDS011;109;19.806;-70.704;2022-09-02T03:18:20;23.67;;;6.23;;
249;SDS011;109;19.806;-70.704;2022-09-02T03:20:48;20.10;;;5.90;;
249;SDS011;109;19.806;-70.704;2022-09-02T03:23:15;21.20;;;6.07;;
249;SDS011;109;19.806;-70.704;2022-09-02T03:25:46;26.83;;;7.97;;
249;SDS011;109;19.806;-70.704;2022-09-02T03:28:35;23.50;;;6.37;;
249;SDS011;109;19.806;-70.704;2022-09-02T03:31:03;16.60;;;5.00;;
249;SDS011;109;19.806;-70.704;2022-09-02T03:33:30;12.13;;;4.40;;
249;SDS011;109;19.806;-70.704;2022-09-02T03:35:57;15.90;;;4.87;;
249;SDS011;109;19.806;-70.704;2022-09-02T03:38:24;16.70;;;5.40;;
249;SDS011;109;19.806;-70.704;2022-09-02T03:40:51;19.73;;;5.77;;
249;SDS011;109;19.806;-70.704;2022-09-02T03:43:17;19.50;;;4.90;;
249;SDS011;109;19.806;-70.704;2022-09-02T03:45:44;16.60;;;5.70;;
249;SDS011;109;19.806;-70.704;2022-09-02T03:48:13;14.87;;;5.17;;
249;SDS011;109;19.806;-70.704;2022-09-02T03:50:42;15.20;;;5.47;;
249;SDS011;109;19.806;-70.704;2022-09-02T03:53:15;18.90;;;5.43;;
249;SDS011;109;19.806;-70.704;2022-09-02T03:55:42;19.83;;;5.57;;
249;SDS011;109;19.806;-70.704;2022-09-02T03:58:10;17.73;;;5.00;;
249;SDS011;109;19.806;-70.704;2022-09-02T04:00:37;31.40;;;6.60;;
249;SDS011;109;19.806;-70.704;2022-09-02T04:03:04;18.60;;;6.13;;
249;SDS011;109;19.806;-70.704;2022-09-02T04:05:32;22.93;;;6.40;;
249;SDS011;109;19.806;-70.704;2022-09-02T04:08:00;33.90;;;6.40;;
249;SDS011;109;19.806;-70.704;2022-09-02T04:10:27;30.37;;;7.53;;
249;SDS011;109;19.806;-70.704;2022-09-02T04:12:54;20.10;;;5.83;;
249;SDS011;109;19.806;-70.704;2022-09-02T04:15:21;21.80;;;6.40;;
249;SDS011;109;19.806;-70.704;2022-09-02T04:17:49;17.37;;;5.77;;
249;SDS011;109;19.806;-70.704;2022-09-02T04:20:18;20.17;;;6.20;;
249;SDS011;109;19.806;-70.704;2022-09-02T04:22:45;25.63;;;6.57;;
249;SDS011;109;19.806;-70.704;2022-09-02T04:25:12;23.03;;;7.10;;
249;SDS011;109;19.806;-70.704;2022-09-02T04:27:39;22.73;;;7.23;;
249;SDS011;109;19.806;-70.704;2022-09-02T04:30:07;30.30;;;6.33;;
249;SDS011;109;19.806;-70.704;2022-09-02T04:32:37;29.73;;;6.43;;
249;SDS011;109;19.806;-70.704;2022-09-02T04:35:05;33.97;;;6.40;;
249;SDS011;109;19.806;-70.704;2022-09-02T04:37:32;24.13;;;6.07;;
249;SDS011;109;19.806;-70.704;2022-09-02T04:39:59;24.70;;;6.60;;
249;SDS011;109;19.806;-70.704;2022-09-02T04:42:26;26.57;;;7.13;;
249;SDS011;109;19.806;-70.704;2022-09-02T04:44:53;30.63;;;7.13;;
249;SDS011;109;19.806;-70.704;2022-09-02T04:47:23;25.00;;;6.50;;
249;SDS011;109;19.806;-70.704;2022-09-02T04:49:53;24.53;;;7.33;;
249;SDS011;109;19.806;-70.704;2022-09-02T04:52:20;22.00;;;5.67;;
249;SDS011;109;19.806;-70.704;2022-09-02T04:54:47;27.77;;;7.03;;
249;SDS011;109;19.806;-70.704;2022-09-02T04:57:13;21.00;;;5.73;;
249;SDS011;109;19.806;-70.704;2022-09-02T04:59:41;19.07;;;5.23;;
249;SDS011;109;19.806;-70.704;2022-09-02T05:02:09;23.63;;;7.03;;
249;SDS011;109;19.806;-70.704;2022-09-02T05:04:36;22.67;;;5.93;;
249;SDS011;109;19.806;-70.704;2022-09-02T05:07:08;22.17;;;6.17;;
249;SDS011;109;19.806;-70.704;2022-09-02T05:09:41;31.40;;;6.57;;
249;SDS011;109;19.806;-70.704;2022-09-02T05:12:09;19.60;;;5.90;;
249;SDS011;109;19.806;-70.704;2022-09-02T05:14:47;18.93;;;6.03;;
249;SDS011;109;19.806;-70.704;2022-09-02T05:17:15;28.80;;;7.47;;
249;SDS011;109;19.806;-70.704;2022-09-02T05:19:43;24.63;;;7.07;;
249;SDS011;109;19.806;-70.704;2022-09-02T05:22:10;22.53;;;6.13;;
249;SDS011;109;19.806;-70.704;2022-09-02T05:24:40;22.53;;;6.00;;
249;SDS011;109;19.806;-70.704;2022-09-02T05:27:10;18.97;;;6.23;;
249;SDS011;109;19.806;-70.704;2022-09-02T05:29:41;28.57;;;6.27;;
249;SDS011;109;19.806;-70.704;2022-09-02T05:32:09;32.13;;;7.30;;
249;SDS011;109;19.806;-70.704;2022-09-02T05:34:38;22.57;;;6.17;;
249;SDS011;109;19.806;-70.704;2022-09-02T05:37:04;22.30;;;6.00;;
249;SDS011;109;19.806;-70.704;2022-09-02T05:39:33;13.53;;;5.37;;
249;SDS011;109;19.806;-70.704;2022-09-02T05:42:00;26.23;;;6.30;;
249;SDS011;109;19.806;-70.704;2022-09-02T05:44:26;22.77;;;6.13;;
249;SDS011;109;19.806;-70.704;2022-09-02T05:46:56;24.63;;;5.73;;
249;SDS011;109;19.806;-70.704;2022-09-02T05:49:23;16.30;;;6.63;;
249;SDS011;109;19.806;-70.704;2022-09-02T05:52:03;16.33;;;6.60;;
249;SDS011;109;19.806;-70.704;2022-09-02T05:54:54;16.70;;;5.80;;
249;SDS011;109;19.806;-70.704;2022-09-02T05:57:22;15.77;;;5.00;;
249;SDS011;109;19.806;-70.704;2022-09-02T06:00:09;11.60;;;4.87;;
249;SDS011;109;19.806;-70.704;2022-09-02T06:02:49;17.10;;;5.47;;
249;SDS011;109;19.806;-70.704;2022-09-02T06:05:22;12.67;;;4.40;;
249;SDS011;109;19.806;-70.704;2022-09-02T06:07:57;19.13;;;4.40;;
249;SDS011;109;19.806;-70.704;2022-09-02T06:10:24;14.90;;;4.20;;
249;SDS011;109;19.806;-70.704;2022-09-02T06:12:51;11.83;;;4.27;;
249;SDS011;109;19.806;-70.704;2022-09-02T06:15:21;12.50;;;4.30;;
249;SDS011;109;19.806;-70.704;2022-09-02T06:17:48;11.63;;;4.00;;
249;SDS011;109;19.806;-70.704;2022-09-02T06:20:14;13.77;;;4.33;;
249;SDS011;109;19.806;-70.704;2022-09-02T06:22:42;14.50;;;4.27;;
249;SDS011;109;19.806;-70.704;2022-09-02T06:25:08;12.43;;;3.93;;
249;SDS011;109;19.806;-70.704;2022-09-02T06:27:36;16.40;;;4.40;;
249;SDS011;109;19.806;-70.704;2022-09-02T06:30:03;22.13;;;5.83;;
249;SDS011;109;19.806;-70.704;2022-09-02T06:32:30;18.33;;;4.83;;
249;SDS011;109;19.806;-70.704;2022-09-02T06:35:02;15.00;;;5.10;;
249;SDS011;109;19.806;-70.704;2022-09-02T06:37:32;17.57;;;5.57;;
249;SDS011;109;19.806;-70.704;2022-09-02T06:39:59;15.40;;;5.43;;
249;SDS011;109;19.806;-70.704;2022-09-02T06:42:26;28.23;;;5.50;;
249;SDS011;109;19.806;-70.704;2022-09-02T06:45:22;23.40;;;5.60;;
249;SDS011;109;19.806;-70.704;2022-09-02T06:47:50;14.90;;;5.17;;
249;SDS011;109;19.806;-70.704;2022-09-02T06:50:18;17.97;;;5.07;;
249;SDS011;109;19.806;-70.704;2022-09-02T06:52:45;20.13;;;5.20;;
249;SDS011;109;19.806;-70.704;2022-09-02T06:55:12;12.10;;;4.43;;
249;SDS011;109;19.806;-70.704;2022-09-02T06:57:41;12.57;;;4.80;;
249;SDS011;109;19.806;-70.704;2022-09-02T07:00:10;13.93;;;5.33;;
249;SDS011;109;19.806;-70.704;2022-09-02T07:02:38;17.97;;;4.73;;
249;SDS011;109;19.806;-70.704;2022-09-02T07:05:04;16.77;;;4.67;;
249;SDS011;109;19.806;-70.704;2022-09-02T07:07:35;17.00;;;5.23;;
249;SDS011;109;19.806;-70.704;2022-09-02T07:10:07;19.83;;;5.30;;
249;SDS011;109;19.806;-70.704;2022-09-02T07:12:38;16.97;;;5.03;;
249;SDS011;109;19.806;-70.704;2022-09-02T07:15:09;15.13;;;5.00;;
249;SDS011;109;19.806;-70.704;2022-09-02T07:17:38;16.80;;;4.87;;
249;SDS011;109;19.806;-70.704;2022-09-02T07:20:12;12.00;;;4.60;;
249;SDS011;109;19.806;-70.704;2022-09-02T07:22:46;16.53;;;4.40;;
249;SDS011;109;19.806;-70.704;2022-09-02T07:25:16;15.57;;;4.37;;
249;SDS011;109;19.806;-70.704;2022-09-02T07:27:46;20.13;;;5.40;;
249;SDS011;109;19.806;-70.704;2022-09-02T07:30:16;13.47;;;4.53;;
249;SDS011;109;19.806;-70.704;2022-09-02T07:32:45;14.37;;;4.90;;
249;SDS011;109;19.806;-70.704;2022-09-02T07:35:13;16.73;;;4.90;;
249;SDS011;109;19.806;-70.704;2022-09-02T07:37:41;15.97;;;5.50;;
249;SDS011;109;19.806;-70.704;2022-09-02T07:40:09;22.23;;;5.33;;
249;SDS011;109;19.806;-70.704;2022-09-02T07:42:37;16.50;;;4.03;;
249;SDS011;109;19.806;-70.704;2022-09-02T07:45:03;15.07;;;5.67;;
249;SDS011;109;19.806;-70.704;2022-09-02T07:47:31;13.87;;;4.80;;
249;SDS011;109;19.806;-70.704;2022-09-02T07:49:58;20.77;;;5.13;;
249;SDS011;109;19.806;-70.704;2022-09-02T07:52:26;13.37;;;4.73;;
249;SDS011;109;19.806;-70.704;2022-09-02T07:54:54;13.57;;;4.37;;
249;SDS011;109;19.806;-70.704;2022-09-02T07:57:21;19.27;;;5.60;;
249;SDS011;109;19.806;-70.704;2022-09-02T07:59:48;11.33;;;4.43;;
249;SDS011;109;19.806;-70.704;2022-09-02T08:02:15;19.07;;;4.87;;
249;SDS011;109;19.806;-70.704;2022-09-02T08:04:44;18.50;;;4.60;;
249;SDS011;109;19.806;-70.704;2022-09-02T08:07:10;15.40;;;4.50;;
249;SDS011;109;19.806;-70.704;2022-09-02T08:09:37;14.87;;;4.10;;
249;SDS011;109;19.806;-70.704;2022-09-02T08:12:04;16.90;;;5.40;;
249;SDS011;109;19.806;-70.704;2022-09-02T08:14:31;27.03;;;5.00;;
249;SDS011;109;19.806;-70.704;2022-09-02T08:16:57;16.13;;;4.93;;
249;SDS011;109;19.806;-70.704;2022-09-02T08:19:24;22.10;;;4.80;;
249;SDS011;109;19.806;-70.704;2022-09-02T08:21:51;12.13;;;4.70;;
249;SDS011;109;19.806;-70.704;2022-09-02T08:24:18;21.10;;;6.23;;
249;SDS011;109;19.806;-70.704;2022-09-02T08:26:44;22.33;;;6.03;;
249;SDS011;109;19.806;-70.704;2022-09-02T08:29:11;23.73;;;5.10;;
249;SDS011;109;19.806;-70.704;2022-09-02T08:31:38;13.57;;;4.90;;
249;SDS011;109;19.806;-70.704;2022-09-02T08:34:04;15.83;;;4.80;;
249;SDS011;109;19.806;-70.704;2022-09-02T08:36:31;17.80;;;4.70;;
249;SDS011;109;19.806;-70.704;2022-09-02T08:38:57;19.10;;;5.43;;
249;SDS011;109;19.806;-70.704;2022-09-02T08:42:14;16.67;;;4.80;;
249;SDS011;109;19.806;-70.704;2022-09-02T08:44:25;19.33;;;4.57;;
249;SDS011;109;19.806;-70.704;2022-09-02T08:46:54;19.13;;;4.63;;
249;SDS011;109;19.806;-70.704;2022-09-02T08:49:27;13.77;;;4.90;;
249;SDS011;109;19.806;-70.704;2022-09-02T08:52:02;16.67;;;5.03;;
249;SDS011;109;19.806;-70.704;2022-09-02T08:54:47;12.50;;;4.20;;
249;SDS011;109;19.806;-70.704;2022-09-02T08:57:24;18.30;;;5.13;;
249;SDS011;109;19.806;-70.704;2022-09-02T08:59:52;10.97;;;4.73;;
249;SDS011;109;19.806;-70.704;2022-09-02T09:08:49;12.57;;;4.83;;
249;SDS011;109;19.806;-70.704;2022-09-02T09:11:37;18.60;;;5.10;;
249;SDS011;109;19.806;-70.704;2022-09-02T09:17:09;18.77;;;5.97;;
249;SDS011;109;19.806;-70.704;2022-09-02T09:20:08;16.83;;;5.20;;
249;SDS011;109;19.806;-70.704;2022-09-02T09:22:41;12.77;;;5.13;;
249;SDS011;109;19.806;-70.704;2022-09-02T09:25:08;22.03;;;5.40;;
249;SDS011;109;19.806;-70.704;2022-09-02T09:27:40;17.80;;;5.33;;
249;SDS011;109;19.806;-70.704;2022-09-02T09:30:10;22.23;;;5.77;;
249;SDS011;109;19.806;-70.704;2022-09-02T09:36:00;18.53;;;5.47;;
249;SDS011;109;19.806;-70.704;2022-09-02T09:38:29;15.43;;;5.70;;
249;SDS011;109;19.806;-70.704;2022-09-02T09:41:17;14.77;;;5.50;;
249;SDS011;109;19.806;-70.704;2022-09-02T09:43:49;16.73;;;5.50;;
249;SDS011;109;19.806;-70.704;2022-09-02T09:46:20;15.93;;;6.13;;
249;SDS011;109;19.806;-70.704;2022-09-02T09:48:52;16.30;;;5.33;;
249;SDS011;109;19.806;-70.704;2022-09-02T09:51:19;22.00;;;6.17;;
249;SDS011;109;19.806;-70.704;2022-09-02T09:53:45;20.07;;;6.47;;
249;SDS011;109;19.806;-70.704;2022-09-02T10:01:11;19.23;;;5.67;;
249;SDS011;109;19.806;-70.704;2022-09-02T10:03:50;19.17;;;5.93;;
249;SDS011;109;19.806;-70.704;2022-09-02T10:09:02;14.90;;;5.40;;
249;SDS011;109;19.806;-70.704;2022-09-02T10:11:30;20.77;;;6.40;;
249;SDS011;109;19.806;-70.704;2022-09-02T10:14:02;19.00;;;5.83;;
249;SDS011;109;19.806;-70.704;2022-09-02T10:19:36;14.57;;;5.60;;
249;SDS011;109;19.806;-70.704;2022-09-02T10:25:00;16.73;;;5.90;;
249;SDS011;109;19.806;-70.704;2022-09-02T10:28:06;15.10;;;5.17;;
249;SDS011;109;19.806;-70.704;2022-09-02T10:36:18;18.70;;;6.40;;
249;SDS011;109;19.806;-70.704;2022-09-02T10:48:07;31.97;;;5.70;;
249;SDS011;109;19.806;-70.704;2022-09-02T10:56:23;17.60;;;5.73;;
249;SDS011;109;19.806;-70.704;2022-09-02T11:01:43;16.00;;;6.00;;
249;SDS011;109;19.806;-70.704;2022-09-02T11:07:03;24.13;;;6.80;;
249;SDS011;109;19.806;-70.704;2022-09-02T11:18:00;23.53;;;6.67;;
249;SDS011;109;19.806;-70.704;2022-09-02T11:20:59;23.00;;;7.20;;
249;SDS011;109;19.806;-70.704;2022-09-02T11:27:04;19.63;;;7.10;;
249;SDS011;109;19.806;-70.704;2022-09-02T11:35:03;18.63;;;6.10;;
249;SDS011;109;19.806;-70.704;2022-09-02T11:37:51;21.73;;;5.67;;
249;SDS011;109;19.806;-70.704;2022-09-02T11:45:50;20.03;;;5.37;;
249;SDS011;109;19.806;-70.704;2022-09-02T11:54:19;23.30;;;5.83;;
249;SDS011;109;19.806;-70.704;2022-09-02T11:56:54;14.63;;;5.83;;
249;SDS011;109;19.806;-70.704;2022-09-02T12:02:39;17.73;;;5.77;;
249;SDS011;109;19.806;-70.704;2022-09-02T12:10:56;28.03;;;6.00;;
249;SDS011;109;19.806;-70.704;2022-09-02T12:13:57;20.53;;;5.20;;
249;SDS011;109;19.806;-70.704;2022-09-02T12:18:45;21.60;;;5.30;;
249;SDS011;109;19.806;-70.704;2022-09-02T12:21:35;22.93;;;6.07;;
249;SDS011;109;19.806;-70.704;2022-09-02T12:24:26;18.93;;;5.47;;
249;SDS011;109;19.806;-70.704;2022-09-02T12:31:50;23.33;;;5.00;;
249;SDS011;109;19.806;-70.704;2022-09-02T12:36:53;25.33;;;6.00;;
249;SDS011;109;19.806;-70.704;2022-09-02T12:44:27;23.20;;;5.00;;
249;SDS011;109;19.806;-70.704;2022-09-02T12:55:23;14.90;;;5.07;;
249;SDS011;109;19.806;-70.704;2022-09-02T12:58:03;12.67;;;4.67;;
249;SDS011;109;19.806;-70.704;2022-09-02T13:07:08;23.73;;;6.53;;
249;SDS011;109;19.806;-70.704;2022-09-02T13:28:36;19.40;;;4.77;;
249;SDS011;109;19.806;-70.704;2022-09-02T13:31:25;22.30;;;5.13;;
249;SDS011;109;19.806;-70.704;2022-09-02T13:34:06;24.17;;;5.00;;
249;SDS011;109;19.806;-70.704;2022-09-02T13:36:44;20.23;;;5.37;;
249;SDS011;109;19.806;-70.704;2022-09-02T13:39:18;18.83;;;5.07;;
249;SDS011;109;19.806;-70.704;2022-09-02T13:41:45;28.60;;;5.63;;
249;SDS011;109;19.806;-70.704;2022-09-02T13:44:18;25.37;;;6.10;;
249;SDS011;109;19.806;-70.704;2022-09-02T13:46:53;17.83;;;5.40;;
249;SDS011;109;19.806;-70.704;2022-09-02T13:49:35;18.57;;;5.53;;
249;SDS011;109;19.806;-70.704;2022-09-02T13:52:05;12.37;;;4.40;;
249;SDS011;109;19.806;-70.704;2022-09-02T13:54:38;27.93;;;6.40;;
249;SDS011;109;19.806;-70.704;2022-09-02T13:57:09;17.80;;;5.10;;
249;SDS011;109;19.806;-70.704;2022-09-02T13:59:39;64.90;;;7.90;;
249;SDS011;109;19.806;-70.704;2022-09-02T14:02:20;26.93;;;7.07;;
249;SDS011;109;19.806;-70.704;2022-09-02T14:05:04;25.73;;;5.90;;
249;SDS011;109;19.806;-70.704;2022-09-02T14:07:36;25.30;;;5.97;;
249;SDS011;109;19.806;-70.704;2022-09-02T14:10:09;21.20;;;6.03;;
249;SDS011;109;19.806;-70.704;2022-09-02T14:12:38;18.00;;;5.23;;
249;SDS011;109;19.806;-70.704;2022-09-02T14:15:06;16.47;;;5.40;;
249;SDS011;109;19.806;-70.704;2022-09-02T14:17:35;17.87;;;5.73;;
249;SDS011;109;19.806;-70.704;2022-09-02T14:20:17;26.40;;;6.07;;
249;SDS011;109;19.806;-70.704;2022-09-02T14:22:56;22.17;;;4.83;;
249;SDS011;109;19.806;-70.704;2022-09-02T14:25:24;23.80;;;6.17;;
249;SDS011;109;19.806;-70.704;2022-09-02T14:27:55;15.97;;;5.13;;
249;SDS011;109;19.806;-70.704;2022-09-02T14:30:27;20.27;;;6.10;;
249;SDS011;109;19.806;-70.704;2022-09-02T14:36:03;25.93;;;9.50;;
249;SDS011;109;19.806;-70.704;2022-09-02T14:38:36;18.53;;;5.30;;
249;SDS011;109;19.806;-70.704;2022-09-02T14:41:23;13.53;;;4.93;;
249;SDS011;109;19.806;-70.704;2022-09-02T14:46:43;20.50;;;5.33;;
249;SDS011;109;19.806;-70.704;2022-09-02T14:49:30;17.40;;;5.13;;
249;SDS011;109;19.806;-70.704;2022-09-02T14:52:37;26.00;;;6.17;;
249;SDS011;109;19.806;-70.704;2022-09-02T14:55:03;23.77;;;5.23;;
249;SDS011;109;19.806;-70.704;2022-09-02T14:57:34;40.63;;;6.83;;
249;SDS011;109;19.806;-70.704;2022-09-02T15:00:07;20.10;;;4.57;;
249;SDS011;109;19.806;-70.704;2022-09-02T15:02:36;24.53;;;6.00;;
249;SDS011;109;19.806;-70.704;2022-09-02T15:05:08;15.13;;;4.50;;
249;SDS011;109;19.806;-70.704;2022-09-02T15:07:41;24.83;;;4.30;;
249;SDS011;109;19.806;-70.704;2022-09-02T15:10:07;41.90;;;5.73;;
249;SDS011;109;19.806;-70.704;2022-09-02T15:12:39;18.83;;;4.83;;
249;SDS011;109;19.806;-70.704;2022-09-02T15:15:10;31.53;;;5.10;;
249;SDS011;109;19.806;-70.704;2022-09-02T15:17:36;40.27;;;6.97;;
249;SDS011;109;19.806;-70.704;2022-09-02T15:20:03;27.10;;;4.80;;
249;SDS011;109;19.806;-70.704;2022-09-02T15:22:31;27.17;;;4.07;;
249;SDS011;109;19.806;-70.704;2022-09-02T15:24:58;15.03;;;4.40;;
249;SDS011;109;19.806;-70.704;2022-09-02T15:27:25;14.67;;;3.77;;
249;SDS011;109;19.806;-70.704;2022-09-02T15:29:51;13.20;;;3.20;;
249;SDS011;109;19.806;-70.704;2022-09-02T15:32:18;10.50;;;3.90;;
249;SDS011;109;19.806;-70.704;2022-09-02T15:34:45;12.40;;;2.87;;
249;SDS011;109;19.806;-70.704;2022-09-02T15:37:11;8.97;;;3.17;;
249;SDS011;109;19.806;-70.704;2022-09-02T15:39:38;10.17;;;3.40;;
249;SDS011;109;19.806;-70.704;2022-09-02T15:42:05;15.83;;;3.20;;
249;SDS011;109;19.806;-70.704;2022-09-02T15:44:32;22.63;;;3.90;;
249;SDS011;109;19.806;-70.704;2022-09-02T15:46:58;11.97;;;3.20;;
249;SDS011;109;19.806;-70.704;2022-09-02T15:49:25;21.77;;;3.30;;
249;SDS011;109;19.806;-70.704;2022-09-02T15:51:52;18.87;;;3.47;;
249;SDS011;109;19.806;-70.704;2022-09-02T15:54:20;16.57;;;3.60;;
249;SDS011;109;19.806;-70.704;2022-09-02T15:56:48;23.40;;;4.03;;
249;SDS011;109;19.806;-70.704;2022-09-02T15:59:20;22.30;;;4.23;;
249;SDS011;109;19.806;-70.704;2022-09-02T16:01:47;21.70;;;4.47;;
249;SDS011;109;19.806;-70.704;2022-09-02T16:04:20;27.00;;;4.73;;
249;SDS011;109;19.806;-70.704;2022-09-02T16:06:47;13.50;;;3.43;;
249;SDS011;109;19.806;-70.704;2022-09-02T16:09:17;17.47;;;4.33;;
249;SDS011;109;19.806;-70.704;2022-09-02T16:11:53;18.07;;;4.27;;
249;SDS011;109;19.806;-70.704;2022-09-02T16:14:23;11.03;;;3.90;;
249;SDS011;109;19.806;-70.704;2022-09-02T16:16:50;34.87;;;4.40;;
249;SDS011;109;19.806;-70.704;2022-09-02T16:19:22;17.13;;;3.60;;
249;SDS011;109;19.806;-70.704;2022-09-02T16:21:49;19.37;;;5.33;;
249;SDS011;109;19.806;-70.704;2022-09-02T16:24:17;17.20;;;3.87;;
249;SDS011;109;19.806;-70.704;2022-09-02T16:26:46;23.37;;;4.00;;
249;SDS011;109;19.806;-70.704;2022-09-02T16:29:13;18.90;;;4.27;;
249;SDS011;109;19.806;-70.704;2022-09-02T16:31:45;16.37;;;3.90;;
249;SDS011;109;19.806;-70.704;2022-09-02T16:34:14;21.13;;;4.40;;
249;SDS011;109;19.806;-70.704;2022-09-02T16:36:43;15.10;;;4.20;;
249;SDS011;109;19.806;-70.704;2022-09-02T16:39:12;26.03;;;5.67;;
249;SDS011;109;19.806;-70.704;2022-09-02T16:41:43;33.00;;;5.93;;
249;SDS011;109;19.806;-70.704;2022-09-02T16:44:13;22.70;;;3.97;;
249;SDS011;109;19.806;-70.704;2022-09-02T16:46:45;11.63;;;3.80;;
249;SDS011;109;19.806;-70.704;2022-09-02T16:49:14;27.33;;;5.43;;
249;SDS011;109;19.806;-70.704;2022-09-02T16:51:43;15.10;;;3.90;;
249;SDS011;109;19.806;-70.704;2022-09-02T16:54:11;34.20;;;5.53;;
249;SDS011;109;19.806;-70.704;2022-09-02T16:56:38;14.47;;;3.83;;
249;SDS011;109;19.806;-70.704;2022-09-02T16:59:05;18.93;;;4.07;;
249;SDS011;109;19.806;-70.704;2022-09-02T17:01:34;25.53;;;5.37;;
249;SDS011;109;19.806;-70.704;2022-09-02T17:04:03;25.87;;;4.23;;
249;SDS011;109;19.806;-70.704;2022-09-02T17:06:30;25.73;;;4.67;;
249;SDS011;109;19.806;-70.704;2022-09-02T17:08:57;32.63;;;4.90;;
249;SDS011;109;19.806;-70.704;2022-09-02T17:11:25;17.53;;;3.83;;
249;SDS011;109;19.806;-70.704;2022-09-02T17:14:02;27.73;;;5.27;;
249;SDS011;109;19.806;-70.704;2022-09-02T17:16:35;18.50;;;3.90;;
249;SDS011;109;19.806;-70.704;2022-09-02T17:19:03;16.30;;;4.20;;
249;SDS011;109;19.806;-70.704;2022-09-02T17:21:32;12.90;;;3.10;;
249;SDS011;109;19.806;-70.704;2022-09-02T17:24:00;29.10;;;4.37;;
249;SDS011;109;19.806;-70.704;2022-09-02T17:26:28;23.83;;;3.70;;
249;SDS011;109;19.806;-70.704;2022-09-02T17:28:56;20.13;;;5.90;;
249;SDS011;109;19.806;-70.704;2022-09-02T17:31:24;27.03;;;4.73;;
249;SDS011;109;19.806;-70.704;2022-09-02T17:33:51;25.60;;;4.10;;
249;SDS011;109;19.806;-70.704;2022-09-02T17:36:19;14.90;;;3.93;;
249;SDS011;109;19.806;-70.704;2022-09-02T17:38:46;23.53;;;5.20;;
249;SDS011;109;19.806;-70.704;2022-09-02T17:41:13;17.33;;;4.20;;
249;SDS011;109;19.806;-70.704;2022-09-02T17:43:58;20.43;;;4.00;;